createdAt,value
2019-04-10T00:00:23.652Z,988.49
2019-04-10T00:01:23.713Z,988.57
2019-04-10T00:02:23.827Z,988.52
2019-04-10T00:03:31.743Z,988.51
2019-04-10T00:04:25.193Z,988.54
2019-04-10T00:05:23.619Z,988.46
2019-04-10T00:06:23.782Z,988.55
2019-04-10T00:07:23.640Z,988.54
2019-04-10T00:08:23.547Z,988.55
2019-04-10T00:09:23.531Z,988.56
2019-04-10T00:10:23.660Z,988.55
2019-04-10T00:11:23.518Z,988.55
2019-04-10T00:12:23.492Z,988.50
2019-04-10T00:13:24.636Z,988.47
2019-04-10T00:14:24.071Z,988.52
2019-04-10T00:15:24.343Z,988.54
2019-04-10T00:16:24.435Z,988.58
2019-04-10T00:17:23.445Z,988.55
2019-04-10T00:18:24.156Z,988.56
2019-04-10T00:19:23.541Z,988.52
2019-04-10T00:20:24.539Z,988.51
2019-04-10T00:21:23.407Z,988.54
2019-04-10T00:22:24.253Z,988.56
2019-04-10T00:23:23.385Z,988.52
2019-04-10T00:24:23.987Z,988.53
2019-04-10T00:25:24.403Z,988.55
2019-04-10T00:26:23.773Z,988.52
2019-04-10T00:27:23.356Z,988.58
2019-04-10T00:28:23.484Z,988.52
2019-04-10T00:29:24.425Z,988.52
2019-04-10T00:30:23.327Z,988.55
2019-04-10T00:31:24.296Z,988.57
2019-04-10T00:32:23.758Z,988.65
2019-04-10T00:33:23.273Z,988.63
2019-04-10T00:34:23.372Z,988.58
2019-04-10T00:35:23.632Z,988.59
2019-04-10T00:36:23.258Z,988.54
2019-04-10T00:37:28.137Z,988.63
2019-04-10T00:38:24.237Z,988.58
2019-04-10T00:39:23.378Z,988.59
2019-04-10T00:40:23.592Z,988.65
2019-04-10T00:41:23.976Z,988.59
2019-04-10T00:42:23.183Z,988.63
2019-04-10T00:43:23.167Z,988.61
2019-04-10T00:44:23.779Z,988.62
2019-04-10T00:45:23.165Z,988.63
2019-04-10T00:46:24.078Z,988.59
2019-04-10T00:47:23.303Z,988.60
2019-04-10T00:48:23.957Z,988.63
2019-04-10T00:49:23.955Z,988.63
2019-04-10T00:50:23.130Z,988.55
2019-04-10T00:51:23.506Z,988.56
2019-04-10T00:52:24.070Z,988.53
2019-04-10T00:53:23.276Z,988.61
2019-04-10T00:54:23.736Z,988.56
2019-04-10T00:55:23.780Z,988.63
2019-04-10T00:56:23.018Z,988.62
2019-04-10T00:57:23.578Z,988.58
2019-04-10T00:58:23.015Z,988.65
2019-04-10T00:59:24.047Z,988.62
2019-04-10T01:00:23.577Z,988.62
2019-04-10T01:01:23.635Z,988.60
2019-04-10T01:02:22.964Z,988.57
2019-04-10T01:03:23.567Z,988.58
2019-04-10T01:04:22.945Z,988.57
2019-04-10T01:05:22.977Z,988.60
2019-04-10T01:06:24.009Z,988.60
2019-04-10T01:07:35.773Z,988.54
2019-04-10T01:08:24.502Z,988.59
2019-04-10T01:09:23.671Z,988.57
2019-04-10T01:10:23.085Z,988.55
2019-04-10T01:11:23.187Z,988.57
2019-04-10T01:12:23.640Z,988.51
2019-04-10T01:13:23.025Z,988.51
2019-04-10T01:14:23.414Z,988.49
2019-04-10T01:15:22.829Z,988.54
2019-04-10T01:16:23.097Z,988.50
2019-04-10T01:17:22.804Z,988.51
2019-04-10T01:18:23.390Z,988.54
2019-04-10T01:19:23.786Z,988.51
2019-04-10T01:20:23.746Z,988.55
2019-04-10T01:21:22.799Z,988.52
2019-04-10T01:22:23.933Z,988.53
2019-04-10T01:23:22.725Z,988.54
2019-04-10T01:24:23.691Z,988.54
2019-04-10T01:25:22.710Z,988.53
2019-04-10T01:26:23.279Z,988.56
2019-04-10T01:27:23.648Z,988.52
2019-04-10T01:28:22.786Z,988.58
2019-04-10T01:29:22.672Z,988.56
2019-04-10T01:30:22.685Z,988.58
2019-04-10T01:31:23.290Z,988.54
2019-04-10T01:32:23.717Z,988.49
2019-04-10T01:33:22.810Z,988.53
2019-04-10T01:34:22.608Z,988.51
2019-04-10T01:35:22.632Z,988.52
2019-04-10T01:36:22.823Z,988.53
2019-04-10T01:37:22.921Z,988.58
2019-04-10T01:38:22.575Z,988.55
2019-04-10T01:39:22.572Z,988.58
2019-04-10T01:40:23.364Z,988.51
2019-04-10T01:41:23.681Z,988.58
2019-04-10T01:42:22.873Z,988.64
2019-04-10T01:43:22.584Z,988.58
2019-04-10T01:44:22.787Z,988.59
2019-04-10T01:45:22.521Z,988.63
2019-04-10T01:46:22.502Z,988.57
2019-04-10T01:47:23.358Z,988.53
2019-04-10T01:48:22.470Z,988.59
2019-04-10T01:49:22.451Z,988.61
2019-04-10T01:50:22.473Z,988.57
2019-04-10T01:51:23.347Z,988.58
2019-04-10T01:52:22.718Z,988.58
2019-04-10T01:53:22.419Z,988.59
2019-04-10T01:54:22.746Z,988.60
2019-04-10T01:55:25.823Z,988.62
2019-04-10T01:56:30.200Z,988.62
2019-04-10T01:57:24.049Z,988.51
2019-04-10T01:58:23.166Z,988.60
2019-04-10T01:59:22.342Z,988.56
2019-04-10T02:00:22.368Z,988.55
2019-04-10T02:01:22.322Z,988.55
2019-04-10T02:02:23.173Z,988.64
2019-04-10T02:03:22.310Z,988.58
2019-04-10T02:04:22.782Z,988.59
2019-04-10T02:05:22.781Z,988.61
2019-04-10T02:06:22.303Z,988.65
2019-04-10T02:07:23.123Z,988.66
2019-04-10T02:08:22.255Z,988.64
2019-04-10T02:09:23.357Z,988.61
2019-04-10T02:10:22.238Z,988.63
2019-04-10T02:11:22.255Z,988.66
2019-04-10T02:12:22.837Z,988.63
2019-04-10T02:13:23.317Z,988.63
2019-04-10T02:14:22.450Z,988.64
2019-04-10T02:15:22.183Z,988.64
2019-04-10T02:16:22.904Z,988.61
2019-04-10T02:17:22.315Z,988.63
2019-04-10T02:18:22.153Z,988.58
2019-04-10T02:19:22.144Z,988.65
2019-04-10T02:20:22.956Z,988.62
2019-04-10T02:21:22.150Z,988.64
2019-04-10T02:22:22.556Z,988.64
2019-04-10T02:23:22.589Z,988.63
2019-04-10T02:24:22.951Z,988.64
2019-04-10T02:25:22.077Z,988.66
2019-04-10T02:26:22.085Z,988.62
2019-04-10T02:27:22.478Z,988.62
2019-04-10T02:28:22.749Z,988.61
2019-04-10T02:29:22.030Z,988.68
2019-04-10T02:30:23.854Z,988.66
2019-04-10T02:31:24.126Z,988.68
2019-04-10T02:32:21.991Z,988.65
2019-04-10T02:33:23.235Z,988.63
2019-04-10T02:34:23.201Z,988.66
2019-04-10T02:35:24.185Z,988.65
2019-04-10T02:36:23.406Z,988.61
2019-04-10T02:37:22.844Z,988.64
2019-04-10T02:38:39.053Z,988.63
2019-04-10T02:39:29.789Z,988.60
2019-04-10T02:40:23.635Z,988.57
2019-04-10T02:41:22.171Z,988.57
2019-04-10T02:42:22.576Z,988.65
2019-04-10T02:43:23.288Z,988.59
2019-04-10T02:44:22.947Z,988.59
2019-04-10T02:45:22.087Z,988.52
2019-04-10T02:46:22.133Z,988.57
2019-04-10T02:47:23.060Z,988.56
2019-04-10T02:48:23.356Z,988.61
2019-04-10T02:49:22.451Z,988.59
2019-04-10T02:50:21.819Z,988.54
2019-04-10T02:51:23.634Z,988.55
2019-04-10T02:52:22.588Z,988.59
2019-04-10T02:53:23.014Z,988.56
2019-04-10T02:54:21.758Z,988.57
2019-04-10T02:55:23.023Z,988.61
2019-04-10T02:56:23.779Z,988.60
2019-04-10T02:57:22.033Z,988.51
2019-04-10T02:58:22.249Z,988.63
2019-04-10T02:59:23.404Z,988.59
2019-04-10T03:00:22.459Z,988.60
2019-04-10T03:01:23.311Z,988.56
2019-04-10T03:02:22.063Z,988.58
2019-04-10T03:03:22.428Z,988.59
2019-04-10T03:04:21.647Z,988.51
2019-04-10T03:05:23.047Z,988.54
2019-04-10T03:06:22.830Z,988.53
2019-04-10T03:07:21.997Z,988.61
2019-04-10T03:08:39.647Z,988.56
2019-04-10T03:09:38.752Z,988.52
2019-04-10T03:10:29.781Z,988.55
2019-04-10T03:11:24.293Z,988.52
2019-04-10T03:12:21.919Z,988.58
2019-04-10T03:13:21.934Z,988.53
2019-04-10T03:14:21.523Z,988.60
2019-04-10T03:15:23.107Z,988.59
2019-04-10T03:16:21.645Z,988.56
2019-04-10T03:17:21.528Z,988.62
2019-04-10T03:18:21.501Z,988.58
2019-04-10T03:19:21.484Z,988.58
2019-04-10T03:20:22.401Z,988.58
2019-04-10T03:21:21.496Z,988.58
2019-04-10T03:22:21.451Z,988.57
2019-04-10T03:23:21.418Z,988.53
2019-04-10T03:24:21.421Z,988.57
2019-04-10T03:25:21.439Z,988.55
2019-04-10T03:26:21.565Z,988.54
2019-04-10T03:27:22.572Z,988.55
2019-04-10T03:28:21.364Z,988.58
2019-04-10T03:29:21.986Z,988.61
2019-04-10T03:30:23.447Z,988.58
2019-04-10T03:31:22.984Z,988.62
2019-04-10T03:32:23.084Z,988.62
2019-04-10T03:33:26.311Z,988.53
2019-04-10T03:34:22.950Z,988.59
2019-04-10T03:35:21.293Z,988.64
2019-04-10T03:36:21.326Z,988.67
2019-04-10T03:37:22.294Z,988.58
2019-04-10T03:38:21.703Z,988.59
2019-04-10T03:39:21.637Z,988.62
2019-04-10T03:40:21.671Z,988.60
2019-04-10T03:41:21.243Z,988.64
2019-04-10T03:42:21.209Z,988.66
2019-04-10T03:43:21.564Z,988.70
2019-04-10T03:44:21.189Z,988.67
2019-04-10T03:45:22.338Z,988.66
2019-04-10T03:46:21.490Z,988.66
2019-04-10T03:47:21.191Z,988.72
2019-04-10T03:48:21.149Z,988.73
2019-04-10T03:49:22.089Z,988.69
2019-04-10T03:50:21.119Z,988.69
2019-04-10T03:51:21.135Z,988.71
2019-04-10T03:52:21.153Z,988.65
2019-04-10T03:53:22.160Z,988.66
2019-04-10T03:54:21.080Z,988.64
2019-04-10T03:55:21.071Z,988.68
2019-04-10T03:56:21.350Z,988.68
2019-04-10T03:57:21.103Z,988.68
2019-04-10T03:58:21.026Z,988.71
2019-04-10T03:59:22.269Z,988.67
2019-04-10T04:00:21.132Z,988.67
2019-04-10T04:01:21.025Z,988.73
2019-04-10T04:02:21.904Z,988.66
2019-04-10T04:03:20.980Z,988.70
2019-04-10T04:04:21.643Z,988.70
2019-04-10T04:05:20.969Z,988.68
2019-04-10T04:06:21.715Z,988.74
2019-04-10T04:07:21.043Z,988.70
2019-04-10T04:08:21.569Z,988.69
2019-04-10T04:09:21.693Z,988.67
2019-04-10T04:10:20.919Z,988.63
2019-04-10T04:11:21.776Z,988.70
2019-04-10T04:12:20.924Z,988.63
2019-04-10T04:13:21.652Z,988.66
2019-04-10T04:14:21.988Z,988.70
2019-04-10T04:15:21.886Z,988.70
2019-04-10T04:16:20.837Z,988.77
2019-04-10T04:17:20.871Z,988.75
2019-04-10T04:18:21.367Z,988.77
2019-04-10T04:19:21.798Z,988.78
2019-04-10T04:20:21.148Z,988.80
2019-04-10T04:21:20.789Z,988.80
2019-04-10T04:22:20.930Z,988.77
2019-04-10T04:23:21.488Z,988.81
2019-04-10T04:24:22.504Z,988.78
2019-04-10T04:25:21.711Z,988.81
2019-04-10T04:26:21.228Z,988.84
2019-04-10T04:27:21.596Z,988.80
2019-04-10T04:28:20.712Z,988.83
2019-04-10T04:29:20.686Z,988.81
2019-04-10T04:30:20.704Z,988.87
2019-04-10T04:31:20.682Z,988.83
2019-04-10T04:32:21.691Z,988.86
2019-04-10T04:33:21.154Z,988.96
2019-04-10T04:34:20.973Z,988.92
2019-04-10T04:35:20.638Z,988.91
2019-04-10T04:36:20.627Z,988.89
2019-04-10T04:37:20.916Z,988.93
2019-04-10T04:38:20.607Z,988.89
2019-04-10T04:39:26.243Z,988.94
2019-04-10T04:40:21.798Z,988.93
2019-04-10T04:41:20.563Z,988.94
2019-04-10T04:42:20.583Z,988.98
2019-04-10T04:43:21.643Z,988.99
2019-04-10T04:44:20.531Z,989.04
2019-04-10T04:45:21.538Z,989.01
2019-04-10T04:46:20.598Z,989.02
2019-04-10T04:47:20.536Z,989.03
2019-04-10T04:48:20.484Z,989.04
2019-04-10T04:49:20.740Z,989.06
2019-04-10T04:50:20.480Z,989.08
2019-04-10T04:51:20.470Z,989.06
2019-04-10T04:52:20.488Z,989.11
2019-04-10T04:53:20.432Z,989.15
2019-04-10T04:54:21.332Z,989.15
2019-04-10T04:55:20.420Z,989.21
2019-04-10T04:56:20.428Z,989.14
2019-04-10T04:57:20.504Z,989.17
2019-04-10T04:58:20.397Z,989.19
2019-04-10T04:59:20.634Z,989.16
2019-04-10T05:00:21.459Z,989.19
2019-04-10T05:01:21.087Z,989.25
2019-04-10T05:02:20.377Z,989.24
2019-04-10T05:03:20.812Z,989.19
2019-04-10T05:04:20.297Z,989.26
2019-04-10T05:05:20.305Z,989.27
2019-04-10T05:06:20.288Z,989.31
2019-04-10T05:07:20.508Z,989.27
2019-04-10T05:08:20.283Z,989.33
2019-04-10T05:09:29.824Z,989.35
2019-04-10T05:10:21.245Z,989.37
2019-04-10T05:11:20.518Z,989.40
2019-04-10T05:12:20.345Z,989.47
2019-04-10T05:13:20.243Z,989.43
2019-04-10T05:14:20.213Z,989.43
2019-04-10T05:15:20.589Z,989.42
2019-04-10T05:16:20.672Z,989.51
2019-04-10T05:17:20.179Z,989.45
2019-04-10T05:18:21.149Z,989.47
2019-04-10T05:19:21.044Z,989.49
2019-04-10T05:20:20.150Z,989.50
2019-04-10T05:21:21.005Z,989.57
2019-04-10T05:22:20.143Z,989.53
2019-04-10T05:23:20.237Z,989.56
2019-04-10T05:24:20.101Z,989.59
2019-04-10T05:25:21.051Z,989.57
2019-04-10T05:26:20.794Z,989.60
2019-04-10T05:27:20.088Z,989.62
2019-04-10T05:28:20.391Z,989.66
2019-04-10T05:29:20.048Z,989.70
2019-04-10T05:30:20.681Z,989.70
2019-04-10T05:31:20.099Z,989.73
2019-04-10T05:32:21.293Z,989.71
2019-04-10T05:33:20.525Z,989.77
2019-04-10T05:34:19.986Z,989.69
2019-04-10T05:35:19.981Z,989.77
2019-04-10T05:36:19.969Z,989.75
2019-04-10T05:37:19.965Z,989.78
2019-04-10T05:38:20.799Z,989.83
2019-04-10T05:39:19.919Z,989.82
2019-04-10T05:40:19.934Z,989.80
2019-04-10T05:41:19.890Z,989.81
2019-04-10T05:42:22.868Z,989.84
2019-04-10T05:43:20.017Z,989.82
2019-04-10T05:44:20.146Z,989.86
2019-04-10T05:45:19.871Z,989.83
2019-04-10T05:46:21.518Z,989.85
2019-04-10T05:47:19.859Z,989.89
2019-04-10T05:48:24.915Z,989.89
2019-04-10T05:49:20.632Z,989.90
2019-04-10T05:50:19.815Z,989.96
2019-04-10T05:51:19.808Z,989.87
2019-04-10T05:52:20.327Z,989.95
2019-04-10T05:53:20.390Z,989.96
2019-04-10T05:54:19.795Z,989.84
2019-04-10T05:55:20.437Z,989.93
2019-04-10T05:56:20.709Z,989.90
2019-04-10T05:57:20.179Z,989.91
2019-04-10T05:58:19.736Z,989.89
2019-04-10T05:59:19.757Z,989.87
2019-04-10T06:00:20.788Z,990.00
2019-04-10T06:01:30.443Z,989.95
2019-04-10T06:02:20.698Z,989.98
2019-04-10T06:03:20.675Z,989.99
2019-04-10T06:04:19.667Z,989.99
2019-04-10T06:05:20.292Z,989.96
2019-04-10T06:06:20.050Z,989.97
2019-04-10T06:07:19.661Z,989.97
2019-04-10T06:08:19.616Z,989.99
2019-04-10T06:09:20.582Z,989.97
2019-04-10T06:10:19.721Z,989.98
2019-04-10T06:11:20.563Z,989.98
2019-04-10T06:12:20.309Z,989.96
2019-04-10T06:13:19.577Z,989.96
2019-04-10T06:14:19.561Z,989.97
2019-04-10T06:15:19.539Z,990.00
2019-04-10T06:16:19.655Z,990.03
2019-04-10T06:17:20.511Z,990.02
2019-04-10T06:18:20.702Z,990.03
2019-04-10T06:19:19.982Z,990.00
2019-04-10T06:20:19.476Z,990.02
2019-04-10T06:21:19.479Z,990.06
2019-04-10T06:22:20.743Z,990.06
2019-04-10T06:23:19.457Z,990.04
2019-04-10T06:24:20.399Z,989.98
2019-04-10T06:25:21.433Z,990.04
2019-04-10T06:26:19.893Z,989.98
2019-04-10T06:27:20.459Z,990.01
2019-04-10T06:28:19.434Z,990.02
2019-04-10T06:29:19.414Z,989.99
2019-04-10T06:30:19.733Z,990.03
2019-04-10T06:31:19.363Z,989.96
2019-04-10T06:32:19.352Z,989.97
2019-04-10T06:33:20.079Z,990.06
2019-04-10T06:34:20.468Z,990.00
2019-04-10T06:35:19.763Z,989.94
2019-04-10T06:36:19.541Z,989.98
2019-04-10T06:37:19.322Z,989.94
2019-04-10T06:38:20.960Z,989.97
2019-04-10T06:39:20.283Z,989.90
2019-04-10T06:40:22.581Z,989.87
2019-04-10T06:41:20.251Z,989.91
2019-04-10T06:42:20.323Z,989.91
2019-04-10T06:43:19.293Z,989.90
2019-04-10T06:44:19.525Z,989.96
2019-04-10T06:45:19.850Z,990.04
2019-04-10T06:46:20.119Z,989.99
2019-04-10T06:47:20.230Z,989.97
2019-04-10T06:48:19.279Z,989.96
2019-04-10T06:49:19.154Z,989.94
2019-04-10T06:50:19.183Z,989.99
2019-04-10T06:51:21.016Z,990.04
2019-04-10T06:52:19.144Z,989.95
2019-04-10T06:53:19.143Z,989.99
2019-04-10T06:54:19.121Z,990.02
2019-04-10T06:55:19.112Z,989.97
2019-04-10T06:56:19.185Z,990.00
2019-04-10T06:57:19.159Z,990.09
2019-04-10T06:58:20.006Z,990.00
2019-04-10T06:59:19.204Z,990.09
2019-04-10T07:00:19.723Z,990.08
2019-04-10T07:01:22.394Z,990.02
2019-04-10T07:02:24.642Z,990.11
2019-04-10T07:03:21.142Z,990.13
2019-04-10T07:04:21.862Z,990.08
2019-04-10T07:05:20.123Z,990.04
2019-04-10T07:06:22.373Z,990.08
2019-04-10T07:07:21.824Z,990.11
2019-04-10T07:08:22.393Z,990.04
2019-04-10T07:09:21.381Z,990.15
2019-04-10T07:10:30.849Z,990.13
2019-04-10T07:11:29.190Z,990.14
2019-04-10T07:12:20.839Z,990.17
2019-04-10T07:13:20.880Z,990.09
2019-04-10T07:14:18.894Z,990.16
2019-04-10T07:15:22.177Z,990.16
2019-04-10T07:16:20.114Z,990.19
2019-04-10T07:17:19.933Z,990.15
2019-04-10T07:18:20.631Z,990.15
2019-04-10T07:19:19.869Z,990.24
2019-04-10T07:20:19.922Z,990.19
2019-04-10T07:21:20.061Z,990.19
2019-04-10T07:22:18.800Z,990.26
2019-04-10T07:23:24.182Z,990.25
2019-04-10T07:24:20.744Z,990.33
2019-04-10T07:25:19.601Z,990.24
2019-04-10T07:26:27.901Z,990.29
2019-04-10T07:27:19.746Z,990.32
2019-04-10T07:28:19.503Z,990.30
2019-04-10T07:29:21.005Z,990.31
2019-04-10T07:30:24.095Z,990.35
2019-04-10T07:31:19.725Z,990.39
2019-04-10T07:32:19.426Z,990.34
2019-04-10T07:33:19.938Z,990.28
2019-04-10T07:34:23.871Z,990.24
2019-04-10T07:35:21.514Z,990.34
2019-04-10T07:36:18.651Z,990.36
2019-04-10T07:37:21.675Z,990.40
2019-04-10T07:38:21.278Z,990.42
2019-04-10T07:39:18.627Z,990.44
2019-04-10T07:40:18.729Z,990.40
2019-04-10T07:41:21.935Z,990.40
2019-04-10T07:42:26.826Z,990.44
2019-04-10T07:43:25.454Z,990.46
2019-04-10T07:44:19.597Z,990.47
2019-04-10T07:45:18.602Z,990.48
2019-04-10T07:46:18.587Z,990.51
2019-04-10T07:47:20.538Z,990.55
2019-04-10T07:48:18.537Z,990.45
2019-04-10T07:49:19.817Z,990.48
2019-04-10T07:50:18.640Z,990.47
2019-04-10T07:51:19.014Z,990.42
2019-04-10T07:52:20.081Z,990.49
2019-04-10T07:53:18.966Z,990.49
2019-04-10T07:54:21.231Z,990.54
2019-04-10T07:55:19.113Z,990.47
2019-04-10T07:56:20.870Z,990.50
2019-04-10T07:57:18.454Z,990.55
2019-04-10T07:58:19.395Z,990.50
2019-04-10T07:59:18.559Z,990.53
2019-04-10T08:00:18.398Z,990.56
2019-04-10T08:01:18.381Z,990.53
2019-04-10T08:02:18.425Z,990.53
2019-04-10T08:03:18.871Z,990.48
2019-04-10T08:04:18.378Z,990.55
2019-04-10T08:05:18.864Z,990.54
2019-04-10T08:06:18.308Z,990.55
2019-04-10T08:07:28.585Z,990.57
2019-04-10T08:08:19.456Z,990.53
2019-04-10T08:09:18.898Z,990.52
2019-04-10T08:10:18.285Z,990.52
2019-04-10T08:11:18.259Z,990.51
2019-04-10T08:12:19.012Z,990.56
2019-04-10T08:13:18.282Z,990.55
2019-04-10T08:14:18.229Z,990.49
2019-04-10T08:15:18.899Z,990.54
2019-04-10T08:16:18.993Z,990.60
2019-04-10T08:17:18.229Z,990.60
2019-04-10T08:18:18.964Z,990.58
2019-04-10T08:19:18.682Z,990.56
2019-04-10T08:20:18.200Z,990.59
2019-04-10T08:21:18.145Z,990.59
2019-04-10T08:22:18.171Z,990.63
2019-04-10T08:23:18.135Z,990.61
2019-04-10T08:24:18.209Z,990.58
2019-04-10T08:25:18.442Z,990.67
2019-04-10T08:26:18.358Z,990.64
2019-04-10T08:27:19.255Z,990.71
2019-04-10T08:28:18.106Z,990.65
2019-04-10T08:29:18.254Z,990.70
2019-04-10T08:30:18.062Z,990.71
2019-04-10T08:31:18.983Z,990.71
2019-04-10T08:32:18.185Z,990.70
2019-04-10T08:33:18.023Z,990.67
2019-04-10T08:34:18.020Z,990.70
2019-04-10T08:35:18.010Z,990.69
2019-04-10T08:36:17.969Z,990.73
2019-04-10T08:37:18.858Z,990.72
2019-04-10T08:38:18.026Z,990.69
2019-04-10T08:39:32.404Z,990.70
2019-04-10T08:40:19.117Z,990.78
2019-04-10T08:41:17.951Z,990.73
2019-04-10T08:42:18.884Z,990.77
2019-04-10T08:43:18.086Z,990.81
2019-04-10T08:44:18.132Z,990.81
2019-04-10T08:45:18.818Z,990.75
2019-04-10T08:46:17.880Z,990.77
2019-04-10T08:47:17.900Z,990.78
2019-04-10T08:48:17.850Z,990.80
2019-04-10T08:49:18.379Z,990.80
2019-04-10T08:50:17.848Z,990.82
2019-04-10T08:51:17.820Z,990.79
2019-04-10T08:52:17.848Z,990.83
2019-04-10T08:53:18.033Z,990.80
2019-04-10T08:54:18.457Z,990.79
2019-04-10T08:55:17.859Z,990.83
2019-04-10T08:56:18.444Z,990.87
2019-04-10T08:57:17.828Z,990.80
2019-04-10T08:58:18.759Z,990.81
2019-04-10T08:59:17.753Z,990.84
2019-04-10T09:00:18.612Z,990.81
2019-04-10T09:01:17.715Z,990.81
2019-04-10T09:02:18.025Z,990.83
2019-04-10T09:03:17.716Z,990.83
2019-04-10T09:04:17.875Z,990.88
2019-04-10T09:05:17.671Z,990.89
2019-04-10T09:06:17.710Z,990.88
2019-04-10T09:07:17.658Z,990.89
2019-04-10T09:08:17.670Z,990.90
2019-04-10T09:09:17.666Z,990.87
2019-04-10T09:10:18.508Z,990.88
2019-04-10T09:11:25.457Z,990.82
2019-04-10T09:12:19.619Z,990.83
2019-04-10T09:13:17.626Z,990.88
2019-04-10T09:14:17.584Z,990.83
2019-04-10T09:15:18.179Z,990.82
2019-04-10T09:16:18.362Z,990.86
2019-04-10T09:17:17.536Z,990.82
2019-04-10T09:18:17.879Z,990.81
2019-04-10T09:19:18.906Z,990.76
2019-04-10T09:20:18.406Z,990.84
2019-04-10T09:21:17.561Z,990.80
2019-04-10T09:22:17.494Z,990.80
2019-04-10T09:23:40.949Z,990.87
2019-04-10T09:24:19.529Z,990.76
2019-04-10T09:25:17.857Z,990.78
2019-04-10T09:26:17.419Z,990.82
2019-04-10T09:27:17.431Z,990.83
2019-04-10T09:28:18.192Z,990.83
2019-04-10T09:29:18.173Z,990.83
2019-04-10T09:30:18.397Z,990.78
2019-04-10T09:31:17.713Z,990.86
2019-04-10T09:32:18.128Z,990.91
2019-04-10T09:33:24.608Z,990.90
2019-04-10T09:34:18.345Z,990.83
2019-04-10T09:35:17.344Z,990.82
2019-04-10T09:36:18.238Z,990.84
2019-04-10T09:37:17.789Z,990.92
2019-04-10T09:38:17.319Z,990.89
2019-04-10T09:39:17.308Z,990.93
2019-04-10T09:40:18.235Z,990.92
2019-04-10T09:41:17.548Z,990.96
2019-04-10T09:42:17.269Z,990.92
2019-04-10T09:43:17.743Z,990.93
2019-04-10T09:44:17.243Z,990.93
2019-04-10T09:45:17.772Z,990.89
2019-04-10T09:46:18.142Z,990.94
2019-04-10T09:47:18.387Z,990.90
2019-04-10T09:48:17.244Z,990.92
2019-04-10T09:49:17.186Z,990.85
2019-04-10T09:50:17.282Z,990.78
2019-04-10T09:51:19.449Z,990.93
2019-04-10T09:52:17.139Z,990.87
2019-04-10T09:53:17.210Z,990.90
2019-04-10T09:54:17.529Z,990.96
2019-04-10T09:55:18.007Z,990.87
2019-04-10T09:56:17.317Z,990.88
2019-04-10T09:57:17.821Z,990.97
2019-04-10T09:58:17.566Z,990.90
2019-04-10T09:59:18.070Z,990.87
2019-04-10T10:00:17.209Z,990.88
2019-04-10T10:01:17.893Z,990.86
2019-04-10T10:02:17.683Z,990.89
2019-04-10T10:03:17.400Z,990.90
2019-04-10T10:04:17.357Z,990.91
2019-04-10T10:05:18.102Z,990.90
2019-04-10T10:06:25.123Z,990.91
2019-04-10T10:07:18.634Z,990.90
2019-04-10T10:08:17.006Z,990.86
2019-04-10T10:09:17.611Z,990.83
2019-04-10T10:10:17.226Z,990.83
2019-04-10T10:11:17.971Z,990.91
2019-04-10T10:12:17.883Z,990.93
2019-04-10T10:13:17.253Z,990.93
2019-04-10T10:14:16.909Z,990.89
2019-04-10T10:15:16.947Z,990.89
2019-04-10T10:16:17.019Z,990.92
2019-04-10T10:17:17.582Z,990.89
2019-04-10T10:18:17.230Z,990.88
2019-04-10T10:19:18.235Z,990.89
2019-04-10T10:20:16.860Z,990.85
2019-04-10T10:21:16.845Z,990.91
2019-04-10T10:22:16.909Z,990.87
2019-04-10T10:23:17.910Z,990.83
2019-04-10T10:24:16.796Z,990.84
2019-04-10T10:25:17.405Z,990.89
2019-04-10T10:26:17.574Z,990.83
2019-04-10T10:27:17.757Z,990.86
2019-04-10T10:28:16.810Z,990.87
2019-04-10T10:29:17.651Z,990.93
2019-04-10T10:30:17.605Z,990.87
2019-04-10T10:31:16.872Z,990.85
2019-04-10T10:32:17.102Z,990.83
2019-04-10T10:33:17.449Z,990.86
2019-04-10T10:34:16.723Z,990.91
2019-04-10T10:35:16.856Z,990.90
2019-04-10T10:36:17.671Z,990.96
2019-04-10T10:37:16.715Z,990.95
2019-04-10T10:38:16.689Z,990.88
2019-04-10T10:39:17.270Z,990.92
2019-04-10T10:40:17.206Z,990.89
2019-04-10T10:41:16.637Z,990.85
2019-04-10T10:42:16.618Z,990.85
2019-04-10T10:43:16.654Z,990.82
2019-04-10T10:44:17.318Z,990.88
2019-04-10T10:45:16.675Z,990.83
2019-04-10T10:46:17.529Z,990.88
2019-04-10T10:47:16.547Z,990.93
2019-04-10T10:48:17.532Z,990.95
2019-04-10T10:49:16.509Z,990.92
2019-04-10T10:50:17.174Z,990.89
2019-04-10T10:51:16.515Z,990.88
2019-04-10T10:52:17.538Z,990.88
2019-04-10T10:53:16.507Z,990.91
2019-04-10T10:54:16.881Z,990.87
2019-04-10T10:55:16.465Z,990.90
2019-04-10T10:56:16.456Z,990.90
2019-04-10T10:57:17.244Z,990.90
2019-04-10T10:58:16.470Z,990.91
2019-04-10T10:59:17.513Z,990.90
2019-04-10T11:00:16.985Z,990.88
2019-04-10T11:01:16.440Z,990.96
2019-04-10T11:02:17.127Z,990.95
2019-04-10T11:03:16.438Z,990.89
2019-04-10T11:04:16.370Z,990.95
2019-04-10T11:05:16.993Z,990.97
2019-04-10T11:06:17.754Z,990.88
2019-04-10T11:07:16.344Z,990.93
2019-04-10T11:08:17.464Z,990.88
2019-04-10T11:09:16.315Z,990.84
2019-04-10T11:10:19.787Z,990.92
2019-04-10T11:11:17.294Z,990.84
2019-04-10T11:12:16.297Z,990.90
2019-04-10T11:13:16.674Z,990.87
2019-04-10T11:14:16.248Z,990.86
2019-04-10T11:15:16.281Z,990.91
2019-04-10T11:16:17.019Z,990.91
2019-04-10T11:17:16.213Z,990.91
2019-04-10T11:18:16.241Z,990.90
2019-04-10T11:19:17.297Z,990.91
2019-04-10T11:20:17.649Z,990.87
2019-04-10T11:21:16.785Z,990.85
2019-04-10T11:22:21.795Z,990.90
2019-04-10T11:23:18.153Z,990.94
2019-04-10T11:24:17.048Z,990.92
2019-04-10T11:25:16.149Z,990.89
2019-04-10T11:26:20.552Z,990.95
2019-04-10T11:27:18.032Z,990.93
2019-04-10T11:28:16.382Z,990.92
2019-04-10T11:29:17.471Z,990.91
2019-04-10T11:30:16.162Z,990.92
2019-04-10T11:31:17.326Z,990.94
2019-04-10T11:32:16.084Z,990.90
2019-04-10T11:33:17.630Z,990.92
2019-04-10T11:34:16.543Z,990.95
2019-04-10T11:35:17.426Z,990.92
2019-04-10T11:36:17.437Z,990.86
2019-04-10T11:37:24.252Z,990.88
2019-04-10T11:38:17.589Z,990.91
2019-04-10T11:39:22.696Z,990.93
2019-04-10T11:40:18.079Z,990.91
2019-04-10T11:41:18.054Z,990.88
2019-04-10T11:42:15.997Z,990.91
2019-04-10T11:43:16.654Z,990.90
2019-04-10T11:44:19.943Z,990.88
2019-04-10T11:45:17.088Z,990.94
2019-04-10T11:46:16.934Z,990.91
2019-04-10T11:47:17.332Z,990.95
2019-04-10T11:48:18.313Z,990.95
2019-04-10T11:49:17.818Z,990.95
2019-04-10T11:50:18.400Z,990.90
2019-04-10T11:51:16.510Z,990.96
2019-04-10T11:52:17.412Z,990.93
2019-04-10T11:53:17.771Z,990.99
2019-04-10T11:54:18.038Z,990.96
2019-04-10T11:55:19.970Z,990.97
2019-04-10T11:56:19.129Z,990.98
2019-04-10T11:57:16.688Z,990.97
2019-04-10T11:58:17.772Z,991.01
2019-04-10T11:59:21.151Z,990.97
2019-04-10T12:00:19.856Z,990.92
2019-04-10T12:01:17.727Z,990.91
2019-04-10T12:02:20.759Z,990.97
2019-04-10T12:03:18.347Z,990.96
2019-04-10T12:04:19.214Z,990.92
2019-04-10T12:05:19.902Z,990.90
2019-04-10T12:06:17.435Z,990.88
2019-04-10T12:07:53.017Z,990.87
2019-04-10T12:08:41.703Z,990.96
2019-04-10T12:09:58.919Z,990.96
2019-04-10T12:11:19.842Z,990.98
2019-04-10T12:12:15.649Z,990.98
2019-04-10T12:13:17.964Z,990.98
2019-04-10T12:14:15.659Z,990.92
2019-04-10T12:15:17.130Z,990.97
2019-04-10T12:16:16.732Z,990.97
2019-04-10T12:17:16.052Z,990.94
2019-04-10T12:18:16.150Z,990.95
2019-04-10T12:19:15.584Z,991.00
2019-04-10T12:20:16.641Z,990.98
2019-04-10T12:21:15.752Z,990.95
2019-04-10T12:22:15.773Z,990.98
2019-04-10T12:23:16.664Z,990.94
2019-04-10T12:24:16.209Z,990.97
2019-04-10T12:25:15.529Z,990.95
2019-04-10T12:26:15.831Z,990.95
2019-04-10T12:27:15.479Z,991.01
2019-04-10T12:28:15.865Z,990.99
2019-04-10T12:29:16.254Z,991.05